createdAt,value
2019-01-09T00:00:23.377Z,0.400000
2019-01-09T00:02:53.632Z,1.500000
2019-01-09T00:05:28.468Z,1.500000
2019-01-09T00:07:58.935Z,0.600000
2019-01-09T00:10:29.462Z,0.600000
2019-01-09T00:12:59.747Z,0.700000
2019-01-09T00:15:30.124Z,0.700000
2019-01-09T00:18:00.550Z,1.600000
2019-01-09T00:20:30.902Z,1.600000
2019-01-09T00:23:01.255Z,0.900000
2019-01-09T00:25:31.508Z,0.900000
2019-01-09T00:28:01.949Z,0.900000
2019-01-09T00:30:32.388Z,0.900000
2019-01-09T00:33:02.757Z,1.100000
2019-01-09T00:35:37.376Z,1.100000
2019-01-09T00:38:08.123Z,0.900000
2019-01-09T00:40:38.489Z,0.900000
2019-01-09T00:43:08.981Z,1.200000
2019-01-09T00:45:39.304Z,1.200000
2019-01-09T00:48:09.674Z,1.000000
2019-01-09T00:50:39.938Z,1.000000
2019-01-09T00:53:10.301Z,0.500000
2019-01-09T00:55:40.555Z,0.500000
2019-01-09T00:58:10.856Z,0.800000
2019-01-09T01:00:41.075Z,0.800000
2019-01-09T01:03:11.533Z,0.800000
2019-01-09T01:05:45.985Z,0.800000
2019-01-09T01:08:16.845Z,0.800000
2019-01-09T01:10:47.203Z,0.800000
2019-01-09T01:13:17.575Z,0.400000
2019-01-09T01:15:47.931Z,0.400000
2019-01-09T01:18:18.454Z,0.600000
2019-01-09T01:20:48.752Z,0.600000
2019-01-09T01:23:19.111Z,0.700000
2019-01-09T01:25:49.463Z,0.700000
2019-01-09T01:28:19.835Z,1.400000
2019-01-09T01:30:50.106Z,1.400000
2019-01-09T01:33:20.463Z,0.900000
2019-01-09T01:35:54.753Z,0.900000
2019-01-09T01:38:25.460Z,0.800000
2019-01-09T01:40:55.835Z,0.800000
2019-01-09T01:43:26.189Z,0.800000
2019-01-09T01:45:56.446Z,0.800000
2019-01-09T01:48:26.803Z,1.700000
2019-01-09T01:50:57.180Z,1.700000
2019-01-09T01:53:27.568Z,1.600000
2019-01-09T01:55:57.896Z,1.600000
2019-01-09T01:58:28.163Z,0.900000
2019-01-09T02:00:58.560Z,0.900000
2019-01-09T02:03:28.974Z,0.700000
2019-01-09T02:06:03.989Z,0.700000
2019-01-09T02:08:34.683Z,1.100000
2019-01-09T02:11:05.045Z,1.100000
2019-01-09T02:13:35.388Z,0.800000
2019-01-09T02:16:05.816Z,0.800000
2019-01-09T02:18:36.127Z,1.300000
2019-01-09T02:21:06.497Z,1.300000
2019-01-09T02:23:36.743Z,2.700000
2019-01-09T02:26:07.032Z,2.700000
2019-01-09T02:28:37.388Z,0.500000
2019-01-09T02:31:07.763Z,0.500000
2019-01-09T02:33:38.024Z,1.100000
2019-01-09T02:36:13.247Z,1.100000
2019-01-09T02:38:44.226Z,1.500000
2019-01-09T02:41:14.493Z,1.500000
2019-01-09T02:43:44.851Z,0.600000
2019-01-09T02:46:15.222Z,0.600000
2019-01-09T02:48:48.434Z,1.500000
2019-01-09T02:51:19.170Z,1.500000
2019-01-09T02:53:49.596Z,1.000000
2019-01-09T02:56:19.978Z,1.000000
2019-01-09T02:58:50.427Z,0.500000
2019-01-09T03:01:20.794Z,0.500000
2019-01-09T03:03:51.073Z,0.400000
2019-01-09T03:06:26.512Z,0.400000
2019-01-09T03:09:01.819Z,1.100000
2019-01-09T03:11:32.150Z,0.500000
2019-01-09T03:14:02.556Z,0.500000
2019-01-09T03:16:32.915Z,0.400000
2019-01-09T03:19:03.257Z,0.400000
2019-01-09T03:21:33.741Z,0.700000
2019-01-09T03:24:04.003Z,0.700000
2019-01-09T03:26:34.464Z,0.700000
2019-01-09T03:29:04.835Z,0.700000
2019-01-09T03:31:37.249Z,1.100000
2019-01-09T03:34:07.565Z,1.100000
2019-01-09T03:36:37.914Z,0.800000
2019-01-09T03:39:08.299Z,0.800000
2019-01-09T03:41:38.560Z,0.400000
2019-01-09T03:44:08.925Z,0.400000
2019-01-09T03:46:39.372Z,0.800000
2019-01-09T03:49:09.838Z,0.800000
2019-01-09T03:51:40.089Z,0.700000
2019-01-09T03:54:10.455Z,0.700000
2019-01-09T03:56:40.855Z,0.800000
2019-01-09T03:59:11.346Z,0.800000
2019-01-09T04:01:41.812Z,0.600000
2019-01-09T04:04:12.225Z,0.600000
2019-01-09T04:06:42.646Z,1.300000
2019-01-09T04:09:12.992Z,1.300000
2019-01-09T04:11:43.363Z,0.700000
2019-01-09T04:14:13.652Z,0.700000
2019-01-09T04:16:44.025Z,1.200000
2019-01-09T04:19:14.305Z,1.200000
2019-01-09T04:21:44.678Z,1.400000
2019-01-09T04:24:15.037Z,1.400000
2019-01-09T04:26:45.431Z,1.200000
2019-01-09T04:29:15.798Z,1.200000
2019-01-09T04:31:46.170Z,1.000000
2019-01-09T04:34:16.653Z,1.000000
2019-01-09T04:36:51.752Z,0.700000
2019-01-09T04:39:22.347Z,0.700000
2019-01-09T04:41:52.807Z,1.000000
2019-01-09T04:44:23.190Z,1.000000
2019-01-09T04:46:53.599Z,1.300000
2019-01-09T04:49:23.939Z,1.300000
2019-01-09T04:51:54.309Z,1.200000
2019-01-09T04:54:24.665Z,1.200000
2019-01-09T04:56:54.982Z,0.600000
2019-01-09T04:59:25.473Z,0.600000
2019-01-09T05:01:55.844Z,0.700000
2019-01-09T05:04:26.196Z,0.700000
2019-01-09T05:07:00.721Z,1.200000
2019-01-09T05:09:31.368Z,1.200000
2019-01-09T05:12:01.988Z,0.500000
2019-01-09T05:14:32.302Z,0.500000
2019-01-09T05:17:02.672Z,0.600000
2019-01-09T05:19:32.999Z,0.600000
2019-01-09T05:22:08.350Z,0.700000
2019-01-09T05:24:38.693Z,0.700000
2019-01-09T05:27:09.055Z,1.200000
2019-01-09T05:29:39.441Z,1.200000
2019-01-09T05:32:09.914Z,0.700000
2019-01-09T05:34:40.279Z,0.700000
2019-01-09T05:37:10.663Z,1.000000
2019-01-09T05:39:41.115Z,1.000000
2019-01-09T05:42:11.500Z,1.100000
2019-01-09T05:44:41.770Z,1.100000
2019-01-09T05:47:12.235Z,0.400000
2019-01-09T05:49:42.630Z,0.400000
2019-01-09T05:52:12.951Z,0.700000
2019-01-09T05:54:43.213Z,0.700000
2019-01-09T05:57:13.487Z,0.200000
2019-01-09T05:59:43.866Z,0.200000
2019-01-09T06:02:14.247Z,0.300000
2019-01-09T06:04:44.596Z,0.300000
2019-01-09T06:07:18.570Z,0.500000
2019-01-09T06:09:49.418Z,0.500000
2019-01-09T06:12:19.986Z,1.200000
2019-01-09T06:14:50.683Z,1.200000
2019-01-09T06:17:21.219Z,0.400000
2019-01-09T06:19:56.889Z,0.400000
2019-01-09T06:22:27.202Z,1.700000
2019-01-09T06:24:57.462Z,1.700000
2019-01-09T06:27:27.933Z,1.600000
2019-01-09T06:29:58.295Z,1.600000
2019-01-09T06:32:29.970Z,1.700000
2019-01-09T06:35:00.335Z,1.700000
2019-01-09T06:37:30.718Z,1.100000
2019-01-09T06:40:06.232Z,1.100000
2019-01-09T06:42:36.585Z,0.600000
2019-01-09T06:45:06.940Z,0.600000
2019-01-09T06:47:37.189Z,1.400000
2019-01-09T06:50:07.525Z,1.400000
2019-01-09T06:52:37.923Z,1.200000
2019-01-09T06:55:08.225Z,1.200000
2019-01-09T06:57:38.472Z,1.700000
2019-01-09T07:00:08.822Z,1.700000
2019-01-09T07:02:39.189Z,2.300000
2019-01-09T07:05:09.537Z,2.300000
2019-01-09T07:07:39.916Z,1.400000
2019-01-09T07:10:10.222Z,1.400000
2019-01-09T07:12:40.527Z,1.800000
2019-01-09T07:15:11.542Z,1.800000
2019-01-09T07:17:44.018Z,1.000000
2019-01-09T07:20:14.433Z,1.100000
2019-01-09T07:22:44.778Z,1.100000
2019-01-09T07:25:15.341Z,1.300000
2019-01-09T07:27:45.697Z,1.300000
2019-01-09T07:30:16.040Z,1.400000
2019-01-09T07:32:46.563Z,1.400000
2019-01-09T07:35:17.098Z,2.200000
2019-01-09T07:37:47.572Z,2.200000
2019-01-09T07:40:22.939Z,0.400000
2019-01-09T07:42:53.313Z,0.400000
2019-01-09T07:45:23.697Z,1.800000
2019-01-09T07:47:54.044Z,1.800000
2019-01-09T07:50:24.348Z,1.500000
2019-01-09T07:52:54.722Z,1.500000
2019-01-09T07:55:25.043Z,2.300000
2019-01-09T07:57:55.382Z,2.300000
2019-01-09T08:00:25.823Z,2.000000
2019-01-09T08:02:56.176Z,2.000000
2019-01-09T08:05:26.518Z,0.700000
2019-01-09T08:07:56.812Z,0.700000
2019-01-09T08:10:27.285Z,1.300000
2019-01-09T08:12:57.672Z,1.300000
2019-01-09T08:15:27.979Z,1.500000
2019-01-09T08:17:58.206Z,1.500000
2019-01-09T08:20:28.633Z,0.900000
2019-01-09T08:22:58.930Z,0.900000
2019-01-09T08:25:29.304Z,0.500000
2019-01-09T08:27:59.714Z,0.500000
2019-01-09T08:30:30.091Z,1.500000
2019-01-09T08:33:00.444Z,1.500000
2019-01-09T08:35:30.721Z,0.800000
2019-01-09T08:38:03.022Z,0.800000
2019-01-09T08:40:33.724Z,0.400000
2019-01-09T08:43:09.359Z,0.400000
2019-01-09T08:45:39.850Z,1.200000
2019-01-09T08:48:15.229Z,1.200000
2019-01-09T08:50:45.710Z,0.800000
2019-01-09T08:53:21.054Z,0.800000
2019-01-09T08:55:51.428Z,0.600000
2019-01-09T08:58:21.751Z,0.600000
2019-01-09T09:00:52.160Z,0.800000
2019-01-09T09:03:22.496Z,0.800000
2019-01-09T09:05:52.775Z,0.700000
2019-01-09T09:08:23.174Z,0.700000
2019-01-09T09:10:53.755Z,0.700000
2019-01-09T09:13:24.122Z,0.700000
2019-01-09T09:15:54.507Z,1.100000
2019-01-09T09:18:24.992Z,1.100000
2019-01-09T09:20:55.372Z,0.800000
2019-01-09T09:23:25.668Z,0.800000
2019-01-09T09:25:56.066Z,1.100000
2019-01-09T09:28:26.369Z,1.100000
2019-01-09T09:30:56.576Z,0.800000
2019-01-09T09:33:26.875Z,0.800000
2019-01-09T09:35:57.285Z,1.500000
2019-01-09T09:38:27.481Z,1.500000
2019-01-09T09:40:57.907Z,1.400000
2019-01-09T09:43:28.229Z,1.400000
2019-01-09T09:45:58.628Z,1.200000
2019-01-09T09:48:28.939Z,1.200000
2019-01-09T09:50:59.272Z,1.800000
2019-01-09T09:53:29.680Z,1.800000
2019-01-09T09:55:59.914Z,0.900000
2019-01-09T09:58:30.420Z,0.900000
2019-01-09T10:01:00.730Z,0.700000
2019-01-09T10:03:31.113Z,0.700000
2019-01-09T10:06:01.425Z,1.400000
2019-01-09T10:08:31.734Z,1.400000
2019-01-09T10:11:02.039Z,1.600000
2019-01-09T10:13:32.342Z,1.600000
2019-01-09T10:16:02.744Z,1.400000
2019-01-09T10:18:33.152Z,1.400000
2019-01-09T10:21:03.469Z,0.900000
2019-01-09T10:23:33.685Z,0.900000
2019-01-09T10:26:03.898Z,0.600000
2019-01-09T10:28:34.208Z,0.600000
2019-01-09T10:31:04.514Z,0.700000
2019-01-09T10:33:34.919Z,0.700000
2019-01-09T10:36:05.283Z,1.100000
2019-01-09T10:38:38.188Z,1.100000
2019-01-09T10:41:08.810Z,1.200000
2019-01-09T10:43:39.049Z,1.200000
2019-01-09T10:46:09.358Z,1.300000
2019-01-09T10:48:39.885Z,1.300000
2019-01-09T10:51:10.399Z,0.800000
2019-01-09T10:53:40.726Z,0.800000
2019-01-09T10:56:11.028Z,0.800000
2019-01-09T10:58:41.338Z,0.800000
2019-01-09T11:01:11.812Z,2.200000
2019-01-09T11:03:42.278Z,2.200000
2019-01-09T11:06:14.515Z,0.700000
2019-01-09T11:08:47.138Z,0.700000
2019-01-09T11:11:17.738Z,1.000000
2019-01-09T11:13:47.977Z,1.000000
2019-01-09T11:16:18.359Z,1.100000
2019-01-09T11:18:48.831Z,1.100000
2019-01-09T11:21:24.234Z,2.100000
2019-01-09T11:23:59.572Z,2.100000
2019-01-09T11:26:29.773Z,1.400000
2019-01-09T11:29:00.215Z,1.400000
2019-01-09T11:31:30.541Z,0.500000
2019-01-09T11:34:00.839Z,0.400000
2019-01-09T11:36:31.167Z,0.400000
2019-01-09T11:39:01.485Z,1.000000
2019-01-09T11:41:31.824Z,1.000000
2019-01-09T11:44:02.269Z,0.500000
2019-01-09T11:46:32.537Z,0.500000
2019-01-09T11:49:02.865Z,0.700000
2019-01-09T11:51:33.205Z,0.700000
2019-01-09T11:54:03.533Z,0.900000
2019-01-09T11:56:33.801Z,0.900000
2019-01-09T11:59:04.115Z,1.300000
2019-01-09T12:01:34.479Z,1.300000
2019-01-09T12:04:04.778Z,0.600000
2019-01-09T12:06:35.094Z,0.600000
2019-01-09T12:09:10.415Z,1.100000
2019-01-09T12:11:40.743Z,1.100000
2019-01-09T12:14:11.005Z,1.000000
2019-01-09T12:16:41.332Z,1.000000
2019-01-09T12:19:11.683Z,0.700000
2019-01-09T12:21:41.952Z,0.700000
2019-01-09T12:24:12.397Z,0.800000
2019-01-09T12:26:42.730Z,0.800000
2019-01-09T12:29:13.191Z,0.400000
2019-01-09T12:31:43.616Z,0.400000
2019-01-09T12:34:14.035Z,0.700000
2019-01-09T12:36:44.388Z,0.700000
2019-01-09T12:39:14.829Z,1.200000
2019-01-09T12:41:45.164Z,1.200000
2019-01-09T12:44:15.517Z,1.100000
2019-01-09T12:46:45.792Z,1.100000
2019-01-09T12:49:16.044Z,0.700000
2019-01-09T12:51:46.414Z,0.700000
2019-01-09T12:54:16.753Z,0.800000
2019-01-09T12:56:47.147Z,0.800000
2019-01-09T12:59:21.829Z,1.100000
2019-01-09T13:01:52.473Z,1.100000
2019-01-09T13:04:22.711Z,1.300000
2019-01-09T13:06:53.361Z,1.300000
2019-01-09T13:09:23.798Z,0.900000
2019-01-09T13:11:54.128Z,0.900000
2019-01-09T13:14:24.453Z,0.800000
2019-01-09T13:16:54.786Z,0.800000
2019-01-09T13:19:25.144Z,0.500000
2019-01-09T13:21:55.511Z,0.500000
2019-01-09T13:24:25.929Z,0.800000
2019-01-09T13:26:56.478Z,0.800000
2019-01-09T13:29:27.012Z,0.900000
2019-01-09T13:31:57.332Z,0.900000
2019-01-09T13:34:27.656Z,0.800000
2019-01-09T13:36:57.978Z,0.800000
2019-01-09T13:39:30.920Z,0.700000
2019-01-09T13:42:01.508Z,0.700000
2019-01-09T13:44:31.815Z,1.200000
2019-01-09T13:47:02.239Z,1.200000
2019-01-09T13:49:32.665Z,0.600000
2019-01-09T13:52:02.990Z,0.600000
2019-01-09T13:54:33.407Z,0.500000
2019-01-09T13:57:03.852Z,0.500000
2019-01-09T13:59:34.174Z,0.500000
2019-01-09T14:02:04.525Z,0.500000
2019-01-09T14:04:34.834Z,0.500000
2019-01-09T14:07:05.209Z,0.500000
2019-01-09T14:09:39.591Z,0.600000
2019-01-09T14:12:10.395Z,0.600000
2019-01-09T14:14:40.827Z,0.500000
2019-01-09T14:17:11.131Z,0.500000
2019-01-09T14:19:41.463Z,0.800000
2019-01-09T14:22:11.771Z,0.800000
2019-01-09T14:24:42.080Z,0.300000
2019-01-09T14:27:12.396Z,0.300000
2019-01-09T14:29:42.831Z,0.500000
2019-01-09T14:32:13.163Z,0.500000
2019-01-09T14:34:43.489Z,0.600000
2019-01-09T14:37:13.811Z,0.600000
2019-01-09T14:39:48.176Z,3.300000
2019-01-09T14:42:18.723Z,3.300000
2019-01-09T14:44:48.938Z,0.400000
2019-01-09T14:47:19.167Z,0.400000
2019-01-09T14:49:49.476Z,0.500000
2019-01-09T14:52:19.822Z,0.500000
2019-01-09T14:54:50.215Z,0.700000
2019-01-09T14:57:20.548Z,0.700000
2019-01-09T14:59:50.851Z,0.600000
2019-01-09T15:02:21.195Z,0.600000
2019-01-09T15:04:51.661Z,0.700000
2019-01-09T15:07:24.047Z,0.700000
2019-01-09T15:09:59.386Z,0.700000
2019-01-09T15:12:29.750Z,0.700000
2019-01-09T15:15:05.131Z,0.500000
2019-01-09T15:17:35.667Z,0.500000
2019-01-09T15:20:06.434Z,0.400000
2019-01-09T15:22:36.821Z,0.400000
2019-01-09T15:25:07.027Z,0.400000
2019-01-09T15:27:42.297Z,0.400000
2019-01-09T15:30:12.608Z,0.600000
2019-01-09T15:32:43.957Z,0.600000
2019-01-09T15:35:14.273Z,0.700000
2019-01-09T15:37:44.676Z,0.700000
2019-01-09T15:40:15.099Z,0.700000
2019-01-09T15:42:45.367Z,0.700000
2019-01-09T15:45:15.730Z,0.300000
2019-01-09T15:47:46.027Z,0.300000
2019-01-09T15:50:16.525Z,1.000000
2019-01-09T15:52:46.776Z,1.000000
2019-01-09T15:55:17.064Z,0.900000
2019-01-09T15:57:47.382Z,0.900000
2019-01-09T16:00:17.820Z,0.900000
2019-01-09T16:02:48.198Z,0.700000
2019-01-09T16:05:18.546Z,0.700000
2019-01-09T16:07:49.010Z,0.600000
2019-01-09T16:10:19.302Z,0.600000
2019-01-09T16:12:49.571Z,0.800000
2019-01-09T16:15:19.847Z,0.800000
2019-01-09T16:17:50.103Z,0.900000
2019-01-09T16:20:20.491Z,0.900000
2019-01-09T16:22:50.870Z,0.400000
2019-01-09T16:25:21.456Z,0.400000
2019-01-09T16:27:51.818Z,0.500000
2019-01-09T16:30:22.182Z,0.500000
2019-01-09T16:32:53.043Z,0.400000
2019-01-09T16:35:23.437Z,0.400000
2019-01-09T16:37:53.945Z,0.600000
2019-01-09T16:40:24.291Z,0.600000
2019-01-09T16:42:54.774Z,0.800000
2019-01-09T16:45:25.153Z,0.800000
2019-01-09T16:47:55.540Z,0.500000
2019-01-09T16:50:26.018Z,0.500000
2019-01-09T16:52:56.397Z,0.800000
2019-01-09T16:55:27.185Z,0.800000
2019-01-09T16:57:57.567Z,1.100000
2019-01-09T17:00:27.948Z,1.100000
2019-01-09T17:02:58.327Z,1.300000
2019-01-09T17:05:28.700Z,1.300000
2019-01-09T17:07:59.077Z,1.200000
2019-01-09T17:10:32.590Z,1.200000
2019-01-09T17:13:03.310Z,1.700000
2019-01-09T17:15:33.874Z,1.700000
2019-01-09T17:18:04.497Z,1.900000
2019-01-09T17:20:34.955Z,1.900000
2019-01-09T17:23:05.337Z,0.900000
2019-01-09T17:25:35.624Z,0.900000
2019-01-09T17:28:06.092Z,1.400000
2019-01-09T17:30:36.474Z,1.400000
2019-01-09T17:33:11.974Z,1.400000
2019-01-09T17:35:42.328Z,1.400000
2019-01-09T17:38:12.704Z,0.900000
2019-01-09T17:40:48.118Z,0.900000
2019-01-09T17:43:18.427Z,1.200000
2019-01-09T17:45:48.701Z,1.200000
2019-01-09T17:48:19.066Z,0.900000
2019-01-09T17:50:49.372Z,0.900000
2019-01-09T17:53:19.710Z,1.000000
2019-01-09T17:55:50.093Z,1.000000
2019-01-09T17:58:22.501Z,1.100000
2019-01-09T18:00:52.890Z,1.100000
2019-01-09T18:03:28.297Z,0.800000
2019-01-09T18:05:58.606Z,0.800000
2019-01-09T18:08:28.880Z,0.500000
2019-01-09T18:10:59.881Z,0.500000
2019-01-09T18:13:30.223Z,0.900000
2019-01-09T18:16:00.591Z,0.900000
2019-01-09T18:18:36.044Z,0.900000
2019-01-09T18:21:06.383Z,0.900000
2019-01-09T18:23:36.649Z,1.200000
2019-01-09T18:26:07.018Z,1.200000
2019-01-09T18:28:37.491Z,0.900000
2019-01-09T18:31:08.216Z,0.900000
2019-01-09T18:33:38.720Z,0.500000
2019-01-09T18:36:10.297Z,0.500000
2019-01-09T18:38:40.982Z,1.100000
2019-01-09T18:41:11.339Z,1.100000
2019-01-09T18:43:41.793Z,0.800000
2019-01-09T18:46:12.157Z,0.800000
2019-01-09T18:48:42.931Z,1.100000
2019-01-09T18:51:13.519Z,1.100000
2019-01-09T18:53:43.862Z,1.900000
2019-01-09T18:56:14.123Z,1.900000
2019-01-09T18:58:44.472Z,1.300000
2019-01-09T19:01:14.824Z,1.300000
2019-01-09T19:03:45.566Z,1.100000
2019-01-09T19:06:15.926Z,1.100000
2019-01-09T19:08:46.371Z,1.100000
2019-01-09T19:11:16.807Z,1.100000
2019-01-09T19:13:47.248Z,1.200000
2019-01-09T19:16:17.623Z,1.200000
2019-01-09T19:18:48.068Z,0.900000
2019-01-09T19:21:18.488Z,0.900000
2019-01-09T19:23:48.787Z,0.500000
2019-01-09T19:26:19.348Z,0.500000
2019-01-09T19:28:49.727Z,1.400000
2019-01-09T19:31:20.081Z,1.400000
2019-01-09T19:33:50.436Z,1.500000
2019-01-09T19:36:20.691Z,1.500000
2019-01-09T19:38:51.067Z,0.900000
2019-01-09T19:41:21.426Z,0.900000
2019-01-09T19:43:51.787Z,1.700000
2019-01-09T19:46:22.048Z,1.700000
2019-01-09T19:48:52.675Z,1.600000
2019-01-09T19:51:22.973Z,1.600000
2019-01-09T19:53:53.338Z,1.400000
2019-01-09T19:56:23.595Z,1.400000
2019-01-09T19:58:59.000Z,1.700000
2019-01-09T20:01:29.631Z,1.700000
2019-01-09T20:03:59.970Z,1.600000
2019-01-09T20:06:30.334Z,1.600000
2019-01-09T20:09:00.680Z,1.700000
2019-01-09T20:11:31.063Z,1.700000
2019-01-09T20:14:01.524Z,1.300000
2019-01-09T20:16:36.914Z,1.300000
2019-01-09T20:19:07.271Z,1.300000
2019-01-09T20:21:37.646Z,2.400000
2019-01-09T20:24:08.035Z,2.400000
2019-01-09T20:26:38.559Z,2.300000
2019-01-09T20:29:09.079Z,2.300000
2019-01-09T20:31:39.541Z,1.300000
2019-01-09T20:34:09.882Z,1.300000
2019-01-09T20:36:40.276Z,1.800000
2019-01-09T20:39:10.634Z,1.800000
2019-01-09T20:41:41.335Z,2.400000
2019-01-09T20:44:11.947Z,2.400000
2019-01-09T20:46:42.323Z,2.100000
2019-01-09T20:49:12.674Z,2.100000
2019-01-09T20:51:43.482Z,2.000000
2019-01-09T20:54:14.002Z,2.000000
2019-01-09T20:56:44.515Z,2.000000
2019-01-09T20:59:14.948Z,2.000000
2019-01-09T21:01:45.539Z,1.800000
2019-01-09T21:04:15.931Z,1.800000
2019-01-09T21:06:46.369Z,1.800000
2019-01-09T21:09:16.788Z,1.800000
2019-01-09T21:11:47.187Z,2.000000
2019-01-09T21:14:17.684Z,2.000000
2019-01-09T21:16:47.957Z,1.400000
2019-01-09T21:19:18.391Z,1.400000
2019-01-09T21:21:48.785Z,1.500000
2019-01-09T21:24:19.116Z,1.500000
2019-01-09T21:26:49.473Z,1.600000
2019-01-09T21:29:19.837Z,1.600000
2019-01-09T21:31:50.216Z,1.400000
2019-01-09T21:34:20.581Z,1.400000
2019-01-09T21:36:50.827Z,1.400000
2019-01-09T21:39:21.269Z,1.400000
2019-01-09T21:41:53.456Z,1.600000
2019-01-09T21:44:23.990Z,1.600000
2019-01-09T21:46:54.533Z,1.500000
2019-01-09T21:49:24.792Z,1.500000
2019-01-09T21:51:55.321Z,1.300000
2019-01-09T21:54:25.697Z,1.300000
2019-01-09T21:56:56.042Z,1.200000
2019-01-09T21:59:26.296Z,1.200000
2019-01-09T22:01:56.634Z,1.000000
2019-01-09T22:04:27.085Z,1.000000
2019-01-09T22:06:57.470Z,1.300000
2019-01-09T22:09:27.806Z,1.300000
2019-01-09T22:12:02.476Z,1.000000
2019-01-09T22:14:33.302Z,1.000000
2019-01-09T22:17:03.568Z,1.100000
2019-01-09T22:19:33.909Z,1.100000
2019-01-09T22:22:04.170Z,1.000000
2019-01-09T22:24:34.458Z,1.000000
2019-01-09T22:27:04.786Z,0.900000
2019-01-09T22:29:35.135Z,0.900000
2019-01-09T22:32:05.489Z,1.400000
2019-01-09T22:34:36.024Z,1.400000
2019-01-09T22:37:06.410Z,1.000000
2019-01-09T22:39:36.816Z,1.000000
2019-01-09T22:42:11.729Z,1.000000
2019-01-09T22:44:42.582Z,1.000000
2019-01-09T22:47:13.047Z,1.600000
2019-01-09T22:49:43.469Z,1.600000
2019-01-09T22:52:13.818Z,1.500000
2019-01-09T22:54:44.100Z,1.500000
2019-01-09T22:57:14.416Z,1.200000
2019-01-09T22:59:44.766Z,1.200000
2019-01-09T23:02:15.024Z,0.900000
2019-01-09T23:04:45.378Z,0.900000
2019-01-09T23:07:15.705Z,1.300000
2019-01-09T23:09:46.042Z,1.300000
2019-01-09T23:12:21.120Z,0.800000
2019-01-09T23:14:56.894Z,0.800000
2019-01-09T23:17:27.200Z,1.000000
2019-01-09T23:19:57.527Z,1.000000
2019-01-09T23:22:27.895Z,0.900000
2019-01-09T23:24:58.160Z,0.900000
2019-01-09T23:27:28.480Z,1.800000
2019-01-09T23:29:58.807Z,1.800000
2019-01-09T23:32:29.113Z,1.100000
2019-01-09T23:34:59.418Z,1.100000
2019-01-09T23:37:29.751Z,1.000000
2019-01-09T23:39:59.935Z,1.000000
2019-01-09T23:42:30.789Z,1.000000
2019-01-09T23:45:01.162Z,1.000000
2019-01-09T23:47:31.370Z,0.800000
2019-01-09T23:50:01.754Z,0.800000
2019-01-09T23:52:32.070Z,0.800000
2019-01-09T23:55:02.379Z,0.800000
2019-01-09T23:57:32.912Z,1.000000
